Time;durP1;ratioP1;P1;durP2;ratioP2;P2;SDS_P1;SDS_P2;PMS_P1;PMS_P2;Temp;Humidity;BMP_temperature;BMP_pressure;BME280_temperature;BME280_humidity;BME280_pressure;Samples;Min_cycle;Max_cycle;Signal;HPM_P1;HPM_P2
2021/04/24 00:01:12;;;;;;;14.57;7.50;;;;;;;16.56;45.43;100345.28;5100328;28;20095;-65
2021/04/24 00:03:37;;;;;;;24.48;8.20;;;;;;;16.34;45.46;100340.88;5099374;28;20326;-65
2021/04/24 00:06:05;;;;;;;13.85;7.95;;;;;;;16.38;45.30;100339.50;5101901;28;20043;-65
2021/04/24 00:08:32;;;;;;;13.80;7.65;;;;;;;16.51;44.84;100343.16;5100320;28;20090;-65
2021/04/24 00:10:58;;;;;;;17.85;7.65;;;;;;;16.24;45.13;100355.34;5100380;28;20040;-65
2021/04/24 00:13:23;;;;;;;12.32;7.68;;;;;;;16.38;45.09;100358.19;5100679;28;20024;-65
2021/04/24 00:15:49;;;;;;;13.30;7.55;;;;;;;16.34;44.73;100355.06;5100168;28;20047;-65
2021/04/24 00:18:14;;;;;;;16.48;7.40;;;;;;;16.13;44.66;100322.91;5097817;28;20039;-65
2021/04/24 00:20:41;;;;;;;17.05;7.10;;;;;;;16.37;44.64;100359.22;5100843;28;20081;-65
2021/04/24 00:23:06;;;;;;;10.93;6.82;;;;;;;16.16;44.95;100357.28;5101645;28;20043;-65
2021/04/24 00:25:32;;;;;;;12.55;7.22;;;;;;;16.26;44.31;100361.31;5103713;28;20032;-65
2021/04/24 00:27:58;;;;;;;17.00;7.40;;;;;;;16.23;44.48;100356.34;5104494;28;20039;-65
2021/04/24 00:30:24;;;;;;;15.27;7.63;;;;;;;16.32;44.36;100356.25;5103232;28;20044;-65
2021/04/24 00:32:50;;;;;;;11.65;6.80;;;;;;;16.08;44.67;100350.16;5104320;28;20061;-65
2021/04/24 00:35:18;;;;;;;11.43;7.00;;;;;;;16.23;44.60;100345.66;5103688;28;20043;-64
2021/04/24 00:37:44;;;;;;;15.68;6.93;;;;;;;16.14;44.07;100346.75;5102864;28;20027;-64
2021/04/24 00:40:11;;;;;;;12.60;6.55;;;;;;;16.11;44.00;100348.97;5103610;28;20058;-64
2021/04/24 00:42:37;;;;;;;13.57;6.25;;;;;;;16.07;44.50;100353.84;5103171;28;20098;-65
2021/04/24 00:45:05;;;;;;;15.23;7.13;;;;;;;16.07;44.35;100343.16;5103413;28;20031;-65
2021/04/24 00:47:30;;;;;;;14.70;7.05;;;;;;;16.08;44.15;100352.00;5102390;28;20338;-65
2021/04/24 00:49:56;;;;;;;15.93;7.28;;;;;;;16.05;44.19;100339.03;5107111;28;20028;-65
2021/04/24 00:52:21;;;;;;;9.82;6.32;;;;;;;16.13;43.97;100350.44;5103073;28;20088;-65
2021/04/24 00:54:47;;;;;;;12.18;6.70;;;;;;;15.99;44.25;100345.09;5101971;28;20032;-65
2021/04/24 00:57:13;;;;;;;11.27;6.38;;;;;;;16.01;44.82;100348.41;5103990;28;20050;-65
2021/04/24 00:59:40;;;;;;;16.83;6.47;;;;;;;16.23;44.32;100340.31;5102586;28;20040;-65
2021/04/24 01:02:07;;;;;;;14.05;7.07;;;;;;;16.14;44.25;100340.59;5102630;28;20103;-66
2021/04/24 01:04:33;;;;;;;13.55;7.75;;;;;;;16.07;44.46;100351.19;5104044;28;20028;-65
2021/04/24 01:06:59;;;;;;;16.42;7.75;;;;;;;16.04;44.50;100348.03;5103066;28;20032;-65
2021/04/24 01:09:26;;;;;;;11.10;6.90;;;;;;;16.10;44.58;100355.34;5103475;28;20063;-65
2021/04/24 01:11:51;;;;;;;15.65;7.63;;;;;;;16.10;44.66;100358.84;5103009;28;20036;-65
2021/04/24 01:14:17;;;;;;;15.52;7.07;;;;;;;16.27;44.51;100354.16;5102553;28;20031;-64
2021/04/24 01:16:43;;;;;;;11.63;6.88;;;;;;;16.28;44.14;100345.13;5103366;28;20028;-64
2021/04/24 01:19:12;;;;;;;14.52;7.55;;;;;;;16.31;43.95;100359.94;5102692;28;20568;-65
2021/04/24 01:21:40;;;;;;;14.30;7.35;;;;;;;16.21;43.72;100347.69;5102137;28;20330;-65
2021/04/24 01:24:06;;;;;;;13.45;8.00;;;;;;;16.11;44.17;100362.34;5103738;28;20091;-65
2021/04/24 01:26:33;;;;;;;16.92;8.00;;;;;;;16.07;43.94;100364.53;5102626;28;20089;-65
2021/04/24 01:28:59;;;;;;;22.25;8.02;;;;;;;15.99;44.06;100355.78;5102241;28;20032;-65
2021/04/24 01:31:24;;;;;;;14.00;7.30;;;;;;;16.09;43.85;100359.84;5103005;28;20055;-63
2021/04/24 01:33:49;;;;;;;16.58;7.47;;;;;;;16.12;43.63;100361.31;5102755;28;20122;-64
2021/04/24 01:36:15;;;;;;;15.65;7.07;;;;;;;16.05;43.21;100355.88;5102478;28;20238;-65
2021/04/24 01:38:40;;;;;;;11.68;7.18;;;;;;;16.15;42.64;100353.78;5103663;28;20376;-65
2021/04/24 01:41:06;;;;;;;11.52;6.47;;;;;;;16.10;42.71;100358.84;5102944;28;20240;-65
2021/04/24 01:43:32;;;;;;;13.68;6.85;;;;;;;15.99;43.15;100355.78;5100551;28;20040;-65
2021/04/24 01:45:59;;;;;;;10.73;6.45;;;;;;;16.05;43.04;100357.72;5102634;28;20232;-65
2021/04/24 01:48:24;;;;;;;13.43;7.40;;;;;;;15.92;43.00;100358.34;5103307;28;20210;-65
2021/04/24 01:50:50;;;;;;;14.82;6.82;;;;;;;15.88;43.39;100362.38;5104681;28;20036;-65
2021/04/24 01:53:22;;;;;;;13.80;7.13;;;;;;;15.88;43.21;100360.56;5102612;28;20026;-65
2021/04/24 01:55:49;;;;;;;14.45;6.95;;;;;;;15.81;42.98;100361.47;5105735;28;20063;-65
2021/04/24 01:58:18;;;;;;;17.08;6.63;;;;;;;15.92;42.88;100367.19;5102004;28;20043;-65
2021/04/24 02:00:52;;;;;;;13.30;7.07;;;;;;;15.86;42.87;100362.56;5101609;28;20044;-64
2021/04/24 02:03:18;;;;;;;11.55;6.68;;;;;;;15.82;43.35;100365.78;5101889;28;20116;-65
2021/04/24 02:05:45;;;;;;;16.40;6.40;;;;;;;15.89;43.28;100372.91;5102156;28;20326;-65
2021/04/24 02:08:14;;;;;;;18.13;6.60;;;;;;;15.99;42.83;100369.13;5100734;28;20032;-65
2021/04/24 02:10:41;;;;;;;17.20;7.10;;;;;;;15.88;42.95;100371.22;5100261;28;20225;-65
2021/04/24 02:13:16;;;;;;;12.38;6.07;;;;;;;15.87;42.94;100379.44;5102541;27;20095;-65
2021/04/24 02:15:42;;;;;;;9.30;6.00;;;;;;;15.74;43.91;100377.38;5101701;28;20054;-64
2021/04/24 02:18:08;;;;;;;12.40;6.20;;;;;;;15.66;43.79;100379.28;5102158;28;20028;-64
2021/04/24 02:20:34;;;;;;;12.52;6.35;;;;;;;15.73;43.40;100382.88;5102788;28;20042;-64
2021/04/24 02:23:00;;;;;;;14.63;6.40;;;;;;;15.64;44.03;100390.97;5101685;28;20038;-65
2021/04/24 02:25:26;;;;;;;14.65;7.20;;;;;;;15.50;44.08;100383.66;5102332;28;20056;-65
2021/04/24 02:27:52;;;;;;;13.43;6.00;;;;;;;15.46;44.06;100389.53;5103006;28;20335;-65
2021/04/24 02:30:19;;;;;;;13.82;6.25;;;;;;;15.44;44.08;100383.56;5101995;28;20040;-65
2021/04/24 02:32:46;;;;;;;14.65;6.90;;;;;;;15.53;44.79;100387.81;5103548;28;20047;-65
2021/04/24 02:35:14;;;;;;;15.68;6.53;;;;;;;15.61;44.88;100377.97;5122453;28;20099;-65
2021/04/24 02:37:40;;;;;;;13.35;6.30;;;;;;;15.54;45.64;100378.81;5118092;28;20043;-65
2021/04/24 02:40:10;;;;;;;14.10;6.43;;;;;;;15.58;45.33;100380.97;5101171;28;20077;-65
2021/04/24 02:42:36;;;;;;;13.38;6.22;;;;;;;15.64;45.54;100392.81;5104878;28;20095;-65
2021/04/24 02:45:05;;;;;;;13.90;6.75;;;;;;;15.73;44.34;100397.06;5102787;28;20028;-65
2021/04/24 02:47:32;;;;;;;12.35;6.38;;;;;;;15.51;44.81;100396.00;5101010;28;20024;-65
2021/04/24 02:49:59;;;;;;;14.00;6.30;;;;;;;15.50;43.76;100391.69;5099558;28;20111;-65
2021/04/24 02:52:24;;;;;;;14.60;6.13;;;;;;;15.37;43.83;100401.28;5104673;28;20047;-65
2021/04/24 02:54:49;;;;;;;19.33;6.05;;;;;;;15.31;43.82;100398.31;5103786;28;20413;-65
2021/04/24 02:57:15;;;;;;;12.80;5.65;;;;;;;15.45;43.28;100393.22;5099624;28;20065;-63
2021/04/24 02:59:40;;;;;;;13.98;6.10;;;;;;;15.41;43.29;100400.75;5100810;28;20107;-63
2021/04/24 03:02:06;;;;;;;13.07;6.25;;;;;;;15.39;43.23;100396.59;5102473;28;20028;-64
2021/04/24 03:04:31;;;;;;;16.60;5.60;;;;;;;15.23;42.88;100406.38;5101445;28;20040;-65
2021/04/24 03:06:57;;;;;;;13.82;5.65;;;;;;;15.24;42.65;100405.38;5099594;28;20102;-65
2021/04/24 03:09:22;;;;;;;13.60;6.25;;;;;;;15.22;42.57;100401.22;5102146;28;20033;-65
2021/04/24 03:11:48;;;;;;;11.40;4.93;;;;;;;15.44;42.45;100400.41;5100965;28;20070;-65
2021/04/24 03:14:14;;;;;;;14.90;6.47;;;;;;;15.43;42.27;100400.56;5101150;28;20035;-65
2021/04/24 03:16:39;;;;;;;11.25;5.07;;;;;;;15.35;42.53;100396.13;5099910;28;20035;-65
2021/04/24 03:19:06;;;;;;;13.65;5.72;;;;;;;15.33;42.53;100404.31;5100760;28;20039;-65
2021/04/24 03:21:32;;;;;;;11.65;5.80;;;;;;;15.25;42.52;100409.69;5100507;28;20059;-65
2021/04/24 03:23:57;;;;;;;18.63;5.70;;;;;;;15.24;42.73;100402.69;5100209;28;20222;-65
2021/04/24 03:26:23;;;;;;;13.75;5.60;;;;;;;15.28;42.23;100406.66;5101696;28;20020;-65
2021/04/24 03:28:51;;;;;;;11.40;5.88;;;;;;;15.15;41.97;100408.25;5103600;28;20099;-65
2021/04/24 03:31:17;;;;;;;17.10;6.78;;;;;;;15.19;41.46;100410.41;5102438;28;20036;-65
2021/04/24 03:33:43;;;;;;;13.15;6.18;;;;;;;15.05;42.00;100407.66;5103302;28;20027;-65
2021/04/24 03:36:10;;;;;;;12.70;5.80;;;;;;;15.02;42.21;100406.16;5104410;28;20053;-65
2021/04/24 03:38:35;;;;;;;13.32;6.55;;;;;;;15.12;42.00;100420.09;5103408;28;20032;-65
2021/04/24 03:41:05;;;;;;;12.95;6.03;;;;;;;15.12;42.04;100422.78;5114269;28;20065;-66
2021/04/24 03:43:31;;;;;;;13.07;5.88;;;;;;;15.22;42.03;100423.38;5120556;28;20027;-64
2021/04/24 03:45:56;;;;;;;13.05;5.97;;;;;;;15.28;42.14;100421.84;5108417;28;20309;-65
2021/04/24 03:48:22;;;;;;;18.33;6.13;;;;;;;15.31;42.07;100413.50;5120801;28;20034;-65
2021/04/24 03:50:48;;;;;;;11.90;6.07;;;;;;;15.22;42.16;100407.38;5106927;28;20034;-65
2021/04/24 03:53:13;;;;;;;15.20;6.55;;;;;;;15.40;41.79;100415.09;5106513;28;20218;-65
2021/04/24 03:55:39;;;;;;;15.90;6.22;;;;;;;15.48;42.16;100414.22;5100164;28;20341;-63
2021/04/24 03:58:04;;;;;;;13.65;6.40;;;;;;;15.49;42.36;100410.53;5102531;28;20302;-64
2021/04/24 04:00:31;;;;;;;16.48;6.90;;;;;;;15.53;42.05;100419.84;5103788;28;20344;-65
2021/04/24 04:03:05;;;;;;;14.70;6.47;;;;;;;15.28;42.87;100427.19;5104292;28;20272;-65
2021/04/24 04:05:34;;;;;;;16.98;6.97;;;;;;;15.07;43.32;100434.97;5103459;28;20027;-65
2021/04/24 04:08:00;;;;;;;14.82;7.10;;;;;;;15.14;43.04;100444.78;5104831;28;20031;-65
2021/04/24 04:10:27;;;;;;;19.58;7.95;;;;;;;15.19;42.67;100433.56;5104164;28;20046;-65
2021/04/24 04:12:53;;;;;;;18.10;7.10;;;;;;;15.24;42.53;100434.72;5104403;28;20034;-65
2021/04/24 04:15:20;;;;;;;15.38;6.82;;;;;;;15.10;42.30;100453.28;5104007;28;20032;-65
2021/04/24 04:17:54;;;;;;;17.83;6.78;;;;;;;15.18;41.43;100459.41;5103973;28;20055;-65
2021/04/24 04:20:20;;;;;;;21.83;5.90;;;;;;;15.18;41.53;100454.09;5116727;27;20055;-64
2021/04/24 04:22:45;;;;;;;17.83;5.82;;;;;;;15.17;41.13;100446.25;5103210;28;20031;-65
2021/04/24 04:25:11;;;;;;;11.80;5.82;;;;;;;15.32;40.82;100458.69;5104455;28;20036;-65
2021/04/24 04:27:37;;;;;;;12.88;6.03;;;;;;;15.29;40.30;100459.03;5103646;28;20338;-65
2021/04/24 04:30:06;;;;;;;17.02;5.95;;;;;;;15.15;39.78;100459.78;5103112;28;20360;-65
2021/04/24 04:32:31;;;;;;;17.33;5.97;;;;;;;15.22;39.41;100457.22;5104288;28;20031;-65
2021/04/24 04:34:56;;;;;;;13.93;6.53;;;;;;;15.22;39.64;100447.41;5103433;28;20032;-65
2021/04/24 04:37:22;;;;;;;15.77;5.55;;;;;;;15.12;39.56;100452.13;5103011;28;20095;-64
2021/04/24 04:39:47;;;;;;;10.82;5.68;;;;;;;15.25;39.26;100454.22;5105509;28;20103;-63
2021/04/24 04:42:13;;;;;;;16.48;5.60;;;;;;;15.18;39.30;100455.91;5102646;28;20058;-63
2021/04/24 04:44:38;;;;;;;14.80;6.75;;;;;;;15.30;39.14;100458.03;5104336;28;20233;-64
2021/04/24 04:47:04;;;;;;;17.30;6.10;;;;;;;15.24;39.13;100450.72;5103087;28;20359;-65
2021/04/24 04:49:29;;;;;;;12.20;5.75;;;;;;;15.29;39.38;100474.22;5102539;28;20036;-65
2021/04/24 04:51:55;;;;;;;16.20;6.07;;;;;;;15.19;39.29;100479.75;5104176;28;20051;-65
2021/04/24 04:54:20;;;;;;;13.05;5.90;;;;;;;15.31;39.59;100469.53;5102613;28;20326;-65
2021/04/24 04:56:46;;;;;;;14.85;6.13;;;;;;;15.19;39.71;100469.09;5106194;28;20039;-65
2021/04/24 04:59:11;;;;;;;15.73;6.22;;;;;;;15.27;39.72;100478.88;5103181;28;20040;-65
2021/04/24 05:01:37;;;;;;;13.55;6.55;;;;;;;15.19;39.93;100474.41;5103088;28;20107;-65
2021/04/24 05:04:02;;;;;;;16.58;5.95;;;;;;;15.18;39.86;100472.75;5102596;28;20091;-65
2021/04/24 05:06:28;;;;;;;15.68;6.60;;;;;;;15.24;39.60;100466.72;5106366;28;20107;-65
2021/04/24 05:08:53;;;;;;;13.52;4.95;;;;;;;15.25;39.56;100470.22;5102894;28;20370;-65
2021/04/24 05:11:19;;;;;;;13.57;6.07;;;;;;;15.26;39.54;100474.56;5102616;28;20024;-65
2021/04/24 05:13:44;;;;;;;12.73;6.30;;;;;;;15.42;39.80;100486.97;5103264;28;20329;-65
2021/04/24 05:16:10;;;;;;;19.02;7.30;;;;;;;15.43;39.46;100488.66;5103173;28;20023;-65
2021/04/24 05:18:36;;;;;;;19.38;7.03;;;;;;;15.43;39.44;100485.97;5102995;28;20031;-65
2021/04/24 05:21:02;;;;;;;18.17;6.72;;;;;;;15.40;39.20;100483.66;5103721;28;20067;-64
2021/04/24 05:23:28;;;;;;;18.90;7.35;;;;;;;15.48;39.30;100481.78;5102789;28;20031;-65
2021/04/24 05:25:53;;;;;;;15.35;6.28;;;;;;;15.59;38.79;100485.91;5101309;28;20039;-63
2021/04/24 05:28:18;;;;;;;18.50;6.55;;;;;;;15.63;38.85;100480.06;5103481;28;20036;-64
2021/04/24 05:30:44;;;;;;;17.13;6.28;;;;;;;15.68;38.73;100476.88;5102259;28;20039;-65
2021/04/24 05:33:09;;;;;;;15.85;6.38;;;;;;;15.50;38.50;100468.25;5101782;28;20032;-65
2021/04/24 05:35:35;;;;;;;19.50;6.88;;;;;;;15.56;39.04;100487.06;5105116;28;20232;-65
2021/04/24 05:38:00;;;;;;;16.35;6.43;;;;;;;15.50;38.39;100486.94;5102290;28;20341;-65
2021/04/24 05:40:27;;;;;;;21.45;7.63;;;;;;;15.57;38.45;100486.09;5102389;28;20042;-65
2021/04/24 05:42:52;;;;;;;23.35;11.25;;;;;;;15.49;38.50;100493.28;5103027;28;20032;-65
2021/04/24 05:45:18;;;;;;;19.38;7.30;;;;;;;15.48;38.48;100489.78;5101648;28;20035;-65
2021/04/24 05:47:47;;;;;;;18.45;9.02;;;;;;;15.49;38.21;100482.59;5103346;28;20203;-65
2021/04/24 05:50:19;;;;;;;14.27;5.75;;;;;;;15.39;38.20;100490.81;5103222;28;20058;-64
2021/04/24 05:52:45;;;;;;;17.38;7.30;;;;;;;15.46;38.09;100490.97;5101681;28;20318;-65
2021/04/24 05:55:11;;;;;;;15.00;6.18;;;;;;;15.38;37.75;100486.50;5102306;28;20043;-65
2021/04/24 05:57:38;;;;;;;14.40;5.38;;;;;;;15.31;37.89;100486.38;5102790;28;20024;-65
2021/04/24 06:00:09;;;;;;;13.52;5.70;;;;;;;15.37;37.73;100489.34;5103612;28;20063;-65
2021/04/24 06:02:35;;;;;;;12.48;5.68;;;;;;;15.40;37.92;100483.66;5101090;28;20039;-65
2021/04/24 06:05:02;;;;;;;17.98;5.68;;;;;;;15.43;37.66;100480.63;5105460;28;20031;-63
2021/04/24 06:07:28;;;;;;;24.80;5.82;;;;;;;15.47;36.87;100490.78;5101739;28;20020;-63
2021/04/24 06:09:54;;;;;;;19.73;6.13;;;;;;;15.40;37.25;100491.66;5105138;28;20089;-63
2021/04/24 06:12:19;;;;;;;16.58;6.47;;;;;;;15.34;37.08;100491.34;5102536;28;20036;-64
2021/04/24 06:14:45;;;;;;;18.88;6.53;;;;;;;15.43;37.88;100491.31;5101456;28;20028;-65
2021/04/24 06:17:10;;;;;;;20.65;6.75;;;;;;;15.50;38.34;100495.78;5101160;28;20057;-65
2021/04/24 06:19:35;;;;;;;26.05;8.32;;;;;;;15.51;37.45;100488.59;5101104;28;20225;-65
2021/04/24 06:22:01;;;;;;;17.42;6.35;;;;;;;15.34;37.54;100490.53;5101359;28;20024;-65
2021/04/24 06:24:26;;;;;;;15.10;6.53;;;;;;;15.43;37.17;100500.16;5102450;28;20077;-65
2021/04/24 06:26:52;;;;;;;22.23;7.22;;;;;;;15.40;37.70;100507.66;5101487;28;20233;-65
2021/04/24 06:29:17;;;;;;;23.90;6.78;;;;;;;15.35;38.05;100497.53;5101461;28;20053;-65
2021/04/24 06:31:43;;;;;;;19.75;7.38;;;;;;;15.56;37.54;100510.25;5102919;28;20032;-65
2021/04/24 06:34:08;;;;;;;16.52;6.90;;;;;;;15.60;37.04;100508.94;5101567;28;20040;-65
2021/04/24 06:36:36;;;;;;;18.23;6.88;;;;;;;15.71;37.29;100507.72;5100575;28;20046;-65
2021/04/24 06:39:05;;;;;;;21.17;5.88;;;;;;;15.87;36.73;100503.09;5104646;28;20064;-64
2021/04/24 06:41:34;;;;;;;14.68;5.38;;;;;;;15.74;36.91;100500.19;5101290;28;20064;-65
2021/04/24 06:44:01;;;;;;;14.43;5.10;;;;;;;15.67;35.47;100507.25;5100937;28;20032;-64
2021/04/24 06:46:26;;;;;;;14.60;5.93;;;;;;;15.77;36.14;100510.53;5104766;28;20027;-65
2021/04/24 06:48:51;;;;;;;17.88;6.22;;;;;;;15.76;35.43;100508.84;5101235;28;20548;-65
2021/04/24 06:51:17;;;;;;;18.00;5.25;;;;;;;15.71;35.74;100499.72;5100787;28;20032;-64
2021/04/24 06:53:42;;;;;;;18.80;6.82;;;;;;;15.95;35.93;100504.88;5101914;28;20031;-63
2021/04/24 06:56:08;;;;;;;14.77;5.35;;;;;;;15.98;35.38;100506.38;5100966;28;20032;-65
2021/04/24 06:58:33;;;;;;;16.73;7.35;;;;;;;15.93;35.84;100505.06;5101300;28;20036;-65
2021/04/24 07:00:59;;;;;;;12.15;6.07;;;;;;;15.85;35.45;100512.31;5101179;28;20039;-65
2021/04/24 07:03:24;;;;;;;15.15;5.07;;;;;;;15.90;35.73;100509.94;5100315;28;20028;-65
2021/04/24 07:05:50;;;;;;;21.23;6.70;;;;;;;15.95;35.24;100513.72;5101316;28;20044;-65
2021/04/24 07:08:16;;;;;;;15.82;6.22;;;;;;;15.97;35.48;100516.22;5101300;28;20052;-65
2021/04/24 07:10:41;;;;;;;13.10;5.57;;;;;;;16.08;35.44;100509.63;5101298;28;20051;-65
2021/04/24 07:13:07;;;;;;;15.60;5.53;;;;;;;16.06;35.56;100517.00;5100150;28;20023;-65
2021/04/24 07:15:33;;;;;;;15.20;5.78;;;;;;;16.00;35.40;100531.06;5101974;28;20036;-64
2021/04/24 07:17:58;;;;;;;16.90;5.10;;;;;;;15.92;35.99;100526.59;5099553;28;20028;-65
2021/04/24 07:20:24;;;;;;;14.63;5.15;;;;;;;16.12;36.14;100529.63;5101373;28;20073;-65
2021/04/24 07:22:50;;;;;;;17.50;6.13;;;;;;;16.22;35.47;100531.06;5100005;28;20036;-65
2021/04/24 07:25:15;;;;;;;15.48;5.88;;;;;;;16.17;35.17;100533.44;5099700;28;20100;-65
2021/04/24 07:27:41;;;;;;;20.42;6.15;;;;;;;16.21;35.77;100524.03;5101326;28;20044;-65
2021/04/24 07:30:08;;;;;;;15.75;6.20;;;;;;;16.07;35.56;100532.00;5100206;28;20078;-65
2021/04/24 07:32:34;;;;;;;25.75;4.93;;;;;;;15.93;35.38;100531.78;5102594;28;20130;-64
2021/04/24 07:35:01;;;;;;;15.23;5.43;;;;;;;16.05;36.07;100532.19;5105084;28;20241;-65
2021/04/24 07:37:27;;;;;;;16.60;5.90;;;;;;;16.16;35.84;100533.59;5104858;28;20048;-65
2021/04/24 07:39:53;;;;;;;16.52;5.32;;;;;;;16.09;35.52;100538.00;5104338;28;20273;-65
2021/04/24 07:42:19;;;;;;;15.77;5.65;;;;;;;16.27;35.85;100536.69;5105429;28;20026;-65
2021/04/24 07:44:45;;;;;;;13.93;5.20;;;;;;;16.26;35.23;100527.00;5107590;28;20106;-64
2021/04/24 07:47:10;;;;;;;18.95;5.55;;;;;;;16.35;35.00;100533.13;5113526;28;20241;-64
2021/04/24 07:49:37;;;;;;;11.55;5.22;;;;;;;16.19;35.42;100535.94;5116624;28;20036;-65
2021/04/24 07:52:05;;;;;;;13.18;5.55;;;;;;;16.23;35.52;100543.41;5114299;28;20230;-64
2021/04/24 07:54:30;;;;;;;12.98;5.10;;;;;;;16.18;35.01;100523.56;5114881;28;20040;-64
2021/04/24 07:56:56;;;;;;;13.40;5.43;;;;;;;16.49;35.15;100534.16;5104385;28;20085;-65
2021/04/24 07:59:22;;;;;;;20.23;6.30;;;;;;;16.29;35.37;100536.50;5103430;28;20044;-65
2021/04/24 08:01:47;;;;;;;13.98;5.38;;;;;;;16.35;36.10;100542.97;5105255;28;20046;-64
2021/04/24 08:04:13;;;;;;;20.73;6.32;;;;;;;16.51;36.10;100534.81;5103981;28;20306;-63
2021/04/24 08:06:38;;;;;;;15.13;5.22;;;;;;;16.47;35.03;100538.84;5103677;28;20031;-64
2021/04/24 08:09:05;;;;;;;15.77;5.80;;;;;;;16.55;35.76;100541.47;5104948;28;20024;-66
2021/04/24 08:11:31;;;;;;;15.38;5.55;;;;;;;16.66;34.74;100538.41;5102911;28;20217;-65
2021/04/24 08:13:57;;;;;;;15.20;6.40;;;;;;;16.59;34.66;100532.91;5103645;28;20035;-65
2021/04/24 08:16:22;;;;;;;15.23;5.60;;;;;;;16.64;34.00;100536.88;5104522;28;20027;-65
2021/04/24 08:18:48;;;;;;;15.05;5.88;;;;;;;16.66;34.03;100541.09;5103334;28;20066;-65
2021/04/24 08:21:17;;;;;;;19.67;6.35;;;;;;;16.86;34.52;100541.38;5104578;28;20044;-65
2021/04/24 08:23:43;;;;;;;18.80;6.38;;;;;;;16.98;33.91;100534.56;5108912;28;20027;-64
2021/04/24 08:26:08;;;;;;;16.23;6.53;;;;;;;17.01;34.13;100530.69;5115202;28;20218;-65
2021/04/24 08:28:33;;;;;;;17.45;6.18;;;;;;;17.10;34.39;100526.91;5120562;28;20028;-65
2021/04/24 08:30:59;;;;;;;17.20;7.22;;;;;;;16.84;34.96;100520.16;5115990;28;20233;-65
2021/04/24 08:33:24;;;;;;;18.52;6.20;;;;;;;17.02;34.51;100522.47;5115620;28;20019;-65
2021/04/24 08:35:50;;;;;;;16.45;6.72;;;;;;;17.34;33.94;100521.25;5109423;28;20069;-65
2021/04/24 08:38:15;;;;;;;14.60;5.43;;;;;;;17.34;34.26;100515.06;5122925;28;20256;-65
2021/04/24 08:40:41;;;;;;;15.52;5.32;;;;;;;17.51;33.57;100508.47;5105219;28;20032;-65
2021/04/24 08:43:07;;;;;;;15.05;6.07;;;;;;;17.66;33.87;100509.28;5106079;28;20026;-64
2021/04/24 08:45:34;;;;;;;16.75;6.00;;;;;;;17.70;33.80;100515.13;5105729;28;20083;-64
2021/04/24 08:48:01;;;;;;;20.00;6.03;;;;;;;17.73;34.11;100504.03;5104228;28;20342;-65
2021/04/24 08:50:31;;;;;;;14.90;4.93;;;;;;;17.79;33.49;100501.44;5106575;28;20234;-65
2021/04/24 08:52:58;;;;;;;21.63;6.25;;;;;;;17.90;33.61;100499.25;5114083;28;20027;-65
2021/04/24 08:55:26;;;;;;;17.42;10.13;;;;;;;18.01;33.45;100496.91;5112064;28;20239;-65
2021/04/24 08:57:52;;;;;;;14.35;6.45;;;;;;;18.08;33.47;100489.75;5121251;28;20061;-65
2021/04/24 09:00:23;;;;;;;12.18;5.63;;;;;;;17.77;32.21;100490.06;5110709;28;20050;-65
2021/04/24 09:02:49;;;;;;;17.88;7.95;;;;;;;18.01;33.28;100490.72;5119068;28;20039;-65
2021/04/24 09:05:18;;;;;;;24.88;10.82;;;;;;;17.99;33.27;100482.88;5115932;28;20068;-65
2021/04/24 09:07:44;;;;;;;18.17;7.18;;;;;;;18.05;32.99;100479.41;5117948;28;20024;-65
2021/04/24 09:10:16;;;;;;;16.85;6.18;;;;;;;18.11;33.21;100470.59;5113072;28;20062;-66
2021/04/24 09:12:47;;;;;;;15.25;6.50;;;;;;;18.22;32.60;100465.72;5117481;28;20024;-65
2021/04/24 09:15:18;;;;;;;13.38;5.47;;;;;;;18.18;32.90;100462.63;5115919;28;20069;-65
2021/04/24 09:18:02;;;;;;;15.30;5.07;;;;;;;18.50;32.55;100461.19;5111525;28;20031;-65
2021/04/24 09:20:44;;;;;;;20.10;7.40;;;;;;;18.31;33.32;100453.84;5110189;28;20107;-65
2021/04/24 09:23:10;;;;;;;21.70;7.72;;;;;;;18.00;33.08;100449.69;5108567;28;20062;-65
2021/04/24 09:25:41;;;;;;;15.07;5.82;;;;;;;18.29;33.17;100448.69;5114538;28;20337;-64
2021/04/24 09:28:10;;;;;;;30.95;10.90;;;;;;;18.32;33.67;100447.47;5111287;28;20082;-65
2021/04/24 09:30:38;;;;;;;15.77;6.82;;;;;;;18.24;32.35;100450.28;5110398;27;20027;-65
2021/04/24 09:33:07;;;;;;;12.23;5.15;;;;;;;18.12;32.95;100447.31;5105308;28;20388;-65
2021/04/24 09:35:42;;;;;;;11.25;5.10;;;;;;;17.93;32.65;100440.75;5113704;28;20091;-65
2021/04/24 09:38:09;;;;;;;13.65;5.55;;;;;;;17.78;33.01;100445.38;5118538;28;20034;-65
2021/04/24 09:40:35;;;;;;;50.15;14.45;;;;;;;17.93;34.07;100442.59;5108935;28;20072;-65
2021/04/24 09:43:07;;;;;;;29.35;12.52;;;;;;;17.84;33.57;100439.25;5112151;28;20051;-65
2021/04/24 09:45:42;;;;;;;19.83;7.10;;;;;;;17.89;34.59;100441.34;5109145;28;20032;-65
2021/04/24 09:48:21;;;;;;;13.15;5.10;;;;;;;18.05;32.82;100441.91;5119405;28;20222;-66
2021/04/24 09:50:47;;;;;;;14.18;5.93;;;;;;;18.11;33.40;100442.97;5113696;28;20026;-65
2021/04/24 09:53:23;;;;;;;12.32;4.95;;;;;;;18.44;32.60;100438.69;5118676;28;20236;-65
2021/04/24 09:55:55;;;;;;;16.83;6.60;;;;;;;18.73;31.54;100423.44;5113022;28;20036;-65
2021/04/24 09:58:38;;;;;;;21.45;7.70;;;;;;;18.55;32.42;100433.78;5106107;28;20042;-65
2021/04/24 10:01:23;;;;;;;23.10;5.45;;;;;;;18.49;32.72;100427.38;5108069;28;20063;-65
2021/04/24 10:03:51;;;;;;;12.52;4.95;;;;;;;18.50;32.50;100423.66;5117651;28;20028;-65
2021/04/24 10:06:22;;;;;;;11.25;5.20;;;;;;;18.68;31.74;100421.31;5111370;28;20096;-64
2021/04/24 10:09:27;;;;;;;15.43;5.72;;;;;;;18.73;31.87;100426.94;5116670;28;20423;-64
2021/04/24 10:12:02;;;;;;;14.43;6.72;;;;;;;18.92;31.34;100428.06;5108320;28;20348;-65
2021/04/24 10:14:39;;;;;;;11.63;5.60;;;;;;;18.75;31.74;100427.56;5117131;28;20214;-65
2021/04/24 10:17:09;;;;;;;12.13;5.05;;;;;;;18.50;31.81;100426.34;5110689;28;20200;-65
2021/04/24 10:19:36;;;;;;;14.35;5.13;;;;;;;18.50;32.90;100427.16;5110790;28;20039;-65
2021/04/24 10:22:07;;;;;;;13.13;5.05;;;;;;;18.22;33.69;100425.53;5111018;28;20095;-65
2021/04/24 10:24:32;;;;;;;18.08;6.53;;;;;;;18.01;33.89;100413.00;5110761;28;20039;-65
2021/04/24 10:26:59;;;;;;;15.75;5.47;;;;;;;17.92;33.81;100428.38;5108847;28;20090;-65
2021/04/24 10:29:25;;;;;;;15.50;5.80;;;;;;;17.72;34.32;100419.34;5111664;28;20073;-65
2021/04/24 10:31:52;;;;;;;17.30;6.45;;;;;;;17.50;33.50;100421.97;5105411;28;20040;-65
2021/04/24 10:34:18;;;;;;;14.70;5.65;;;;;;;17.37;33.74;100423.66;5112461;28;20035;-65
2021/04/24 10:36:44;;;;;;;17.50;6.10;;;;;;;17.53;33.36;100418.06;5118191;28;20073;-66
2021/04/24 10:39:17;;;;;;;14.75;5.47;;;;;;;17.69;33.83;100425.91;5116953;28;20357;-65
2021/04/24 10:41:48;;;;;;;13.25;5.55;;;;;;;17.54;32.78;100431.28;5116904;28;20321;-65
2021/04/24 10:44:15;;;;;;;13.75;5.97;;;;;;;17.60;33.86;100424.31;5116052;28;20044;-64
2021/04/24 10:46:55;;;;;;;16.10;5.43;;;;;;;17.76;35.08;100424.13;5115455;28;20253;-64
2021/04/24 10:49:29;;;;;;;18.92;5.32;;;;;;;17.37;34.67;100429.03;5101444;28;20363;-64
2021/04/24 10:52:21;;;;;;;15.95;6.22;;;;;;;17.40;34.25;100423.28;5100393;28;20036;-63
2021/04/24 10:55:16;;;;;;;12.38;4.88;;;;;;;17.73;34.13;100431.72;5101887;28;20210;-65
2021/04/24 10:57:57;;;;;;;16.45;5.47;;;;;;;17.65;34.28;100431.78;5100758;28;20062;-65
2021/04/24 11:00:33;;;;;;;12.50;5.32;;;;;;;17.65;33.68;100445.16;5101987;28;20308;-65
2021/04/24 11:03:00;;;;;;;12.60;6.15;;;;;;;17.69;33.08;100444.66;5101062;28;20032;-65
2021/04/24 11:05:31;;;;;;;10.82;5.10;;;;;;;17.69;35.09;100449.19;5100237;28;20032;-65
2021/04/24 11:08:19;;;;;;;10.70;5.28;;;;;;;17.56;36.26;100447.97;5103313;28;20031;-65
2021/04/24 11:10:47;;;;;;;12.68;5.63;;;;;;;17.52;34.52;100445.88;5104776;28;20058;-65
2021/04/24 11:13:14;;;;;;;14.93;5.13;;;;;;;17.38;36.24;100450.25;5101485;28;20051;-65
2021/04/24 11:15:41;;;;;;;15.90;5.80;;;;;;;17.26;35.20;100451.75;5100172;28;20345;-65
2021/04/24 11:18:10;;;;;;;13.63;5.07;;;;;;;17.35;34.23;100447.94;5101927;28;20028;-65